createdAt,value
2018-07-23T00:01:32.242Z,99.90
2018-07-23T00:04:01.201Z,99.90
2018-07-23T00:06:30.296Z,99.90
2018-07-23T00:09:01.684Z,99.90
2018-07-23T00:11:30.647Z,99.90
2018-07-23T00:13:59.225Z,99.90
2018-07-23T00:16:27.790Z,99.90
2018-07-23T00:18:56.344Z,99.90
2018-07-23T00:21:25.132Z,99.90
2018-07-23T00:23:53.766Z,99.90
2018-07-23T00:26:22.448Z,99.90
2018-07-23T00:28:51.125Z,99.90
2018-07-23T00:31:20.247Z,99.90
2018-07-23T00:33:48.992Z,99.90
2018-07-23T00:36:17.540Z,99.90
2018-07-23T00:38:46.390Z,99.90
2018-07-23T00:41:15.051Z,99.90
2018-07-23T00:43:43.722Z,99.90
2018-07-23T00:46:12.202Z,99.90
2018-07-23T00:48:40.719Z,99.90
2018-07-23T00:51:09.382Z,99.90
2018-07-23T00:53:37.940Z,99.90
2018-07-23T00:56:06.652Z,99.90
2018-07-23T00:58:35.217Z,99.90
2018-07-23T01:01:03.932Z,99.90
2018-07-23T01:06:00.866Z,99.90
2018-07-23T01:08:29.363Z,99.90
2018-07-23T01:10:58.031Z,99.90
2018-07-23T01:13:26.864Z,99.90
2018-07-23T01:15:55.389Z,99.90
2018-07-23T01:18:23.925Z,99.90
2018-07-23T01:20:52.542Z,99.90
2018-07-23T01:23:21.008Z,99.90
2018-07-23T01:25:49.771Z,99.90
2018-07-23T01:28:18.519Z,99.90
2018-07-23T01:30:47.048Z,99.90
2018-07-23T01:33:22.223Z,99.90
2018-07-23T01:35:50.819Z,99.90
2018-07-23T01:38:19.347Z,99.90
2018-07-23T01:40:48.020Z,99.90
2018-07-23T01:43:16.543Z,99.90
2018-07-23T01:45:45.057Z,99.90
2018-07-23T01:48:13.682Z,99.90
2018-07-23T01:50:42.567Z,99.90
2018-07-23T01:53:11.093Z,99.90
2018-07-23T01:55:39.837Z,99.90
2018-07-23T01:58:08.365Z,99.90
2018-07-23T02:00:36.853Z,99.90
2018-07-23T02:03:05.693Z,99.90
2018-07-23T02:05:34.492Z,99.90
2018-07-23T02:08:03.371Z,99.90
2018-07-23T02:10:31.968Z,99.90
2018-07-23T02:13:00.937Z,99.90
2018-07-23T02:15:29.467Z,99.90
2018-07-23T02:17:58.184Z,99.90
2018-07-23T02:20:26.856Z,99.90
2018-07-23T02:22:55.349Z,99.90
2018-07-23T02:25:23.813Z,99.90
2018-07-23T02:27:52.370Z,99.90
2018-07-23T02:30:21.094Z,99.90
2018-07-23T02:32:49.737Z,99.90
2018-07-23T02:35:18.544Z,99.90
2018-07-23T02:37:47.363Z,99.90
2018-07-23T02:40:15.866Z,99.90
2018-07-23T02:42:44.368Z,99.90
2018-07-23T02:45:12.876Z,99.90
2018-07-23T02:47:41.598Z,99.90
2018-07-23T02:50:10.313Z,99.90
2018-07-23T02:52:38.807Z,99.90
2018-07-23T02:55:07.531Z,99.90
2018-07-23T02:57:36.047Z,99.90
2018-07-23T03:00:05.010Z,99.90
2018-07-23T03:02:33.492Z,99.90
2018-07-23T03:05:02.000Z,99.90
2018-07-23T03:07:30.634Z,99.90
2018-07-23T03:09:59.459Z,99.90
2018-07-23T03:12:27.967Z,99.90
2018-07-23T03:14:56.596Z,99.90
2018-07-23T03:17:25.131Z,99.90
2018-07-23T03:19:53.830Z,99.90
2018-07-23T03:22:22.305Z,99.90
2018-07-23T03:24:50.834Z,99.90
2018-07-23T03:27:19.416Z,99.90
2018-07-23T03:29:48.033Z,99.90
2018-07-23T03:32:16.752Z,99.90
2018-07-23T03:34:45.405Z,99.90
2018-07-23T03:37:13.871Z,99.90
2018-07-23T03:39:43.180Z,99.90
2018-07-23T03:42:12.044Z,99.90
2018-07-23T03:44:40.710Z,99.90
2018-07-23T03:47:09.342Z,99.90
2018-07-23T03:49:37.853Z,99.90
2018-07-23T03:52:06.681Z,99.90
2018-07-23T03:54:35.239Z,99.90
2018-07-23T03:57:03.812Z,99.90
2018-07-23T03:59:32.467Z,99.90
2018-07-23T04:02:00.992Z,99.90
2018-07-23T04:04:29.547Z,99.90
2018-07-23T04:06:58.060Z,99.90
2018-07-23T04:09:26.664Z,99.90
2018-07-23T04:11:55.214Z,99.90
2018-07-23T04:14:23.972Z,99.90
2018-07-23T04:16:52.868Z,99.90
2018-07-23T04:19:21.579Z,99.90
2018-07-23T04:21:50.233Z,99.90
2018-07-23T04:24:18.775Z,99.90
2018-07-23T04:26:47.302Z,99.90
2018-07-23T04:29:15.902Z,99.90
2018-07-23T04:31:44.896Z,99.90
2018-07-23T04:34:13.394Z,99.90
2018-07-23T04:36:41.871Z,99.90
2018-07-23T04:39:10.579Z,99.90
2018-07-23T04:41:39.082Z,99.90
2018-07-23T04:46:35.983Z,99.90
2018-07-23T04:49:04.603Z,99.90
2018-07-23T04:51:33.110Z,99.90
2018-07-23T04:54:01.895Z,99.90
2018-07-23T04:56:30.535Z,99.90
2018-07-23T04:58:59.459Z,99.90
2018-07-23T05:01:28.187Z,99.90
2018-07-23T05:03:56.689Z,99.90
2018-07-23T05:06:25.195Z,99.90
2018-07-23T05:08:53.987Z,99.90
2018-07-23T05:11:22.540Z,99.90
2018-07-23T05:13:51.059Z,99.90
2018-07-23T05:16:19.633Z,99.90
2018-07-23T05:18:48.189Z,99.90
2018-07-23T05:21:16.864Z,99.90
2018-07-23T05:23:45.472Z,99.90
2018-07-23T05:26:14.047Z,99.90
2018-07-23T05:28:42.775Z,99.90
2018-07-23T05:31:11.306Z,99.90
2018-07-23T05:33:39.960Z,99.90
2018-07-23T05:36:08.587Z,99.90
2018-07-23T05:38:37.067Z,99.90
2018-07-23T05:41:05.833Z,99.90
2018-07-23T05:43:34.364Z,99.90
2018-07-23T05:46:02.874Z,99.90
2018-07-23T05:48:31.638Z,99.90
2018-07-23T05:51:00.159Z,99.90
2018-07-23T05:53:28.653Z,99.90
2018-07-23T05:55:57.139Z,99.90
2018-07-23T05:58:25.747Z,99.90
2018-07-23T06:00:54.284Z,99.90
2018-07-23T06:03:23.028Z,99.90
2018-07-23T06:05:51.720Z,99.90
2018-07-23T06:08:20.444Z,99.90
2018-07-23T06:10:49.168Z,99.90
2018-07-23T06:13:17.698Z,99.90
2018-07-23T06:15:46.218Z,99.90
2018-07-23T06:18:15.176Z,99.90
2018-07-23T06:20:43.697Z,99.90
2018-07-23T06:23:12.680Z,99.90
2018-07-23T06:25:41.323Z,99.90
2018-07-23T06:28:10.255Z,99.90
2018-07-23T06:30:38.771Z,99.90
2018-07-23T06:33:07.668Z,99.90
2018-07-23T06:35:36.201Z,99.90
2018-07-23T06:38:04.856Z,99.90
2018-07-23T06:40:33.456Z,99.90
2018-07-23T06:43:02.078Z,99.90
2018-07-23T06:45:30.579Z,99.90
2018-07-23T06:47:59.108Z,99.90
2018-07-23T06:50:27.687Z,99.90
2018-07-23T06:55:24.832Z,99.90
2018-07-23T06:57:53.739Z,99.90
2018-07-23T07:02:51.207Z,99.90
2018-07-23T07:05:19.695Z,99.90
2018-07-23T07:07:48.443Z,99.90
2018-07-23T07:10:16.956Z,99.90
2018-07-23T07:12:45.688Z,99.90
2018-07-23T07:15:14.599Z,99.90
2018-07-23T07:17:43.424Z,99.90
2018-07-23T07:20:12.412Z,99.90
2018-07-23T07:22:41.091Z,99.90
2018-07-23T07:25:09.955Z,99.90
2018-07-23T07:27:38.567Z,99.90
2018-07-23T07:30:08.489Z,99.90
2018-07-23T07:32:37.268Z,99.90
2018-07-23T07:35:06.339Z,99.60
2018-07-23T07:37:34.862Z,99.30
2018-07-23T07:40:03.723Z,99.40
2018-07-23T07:42:32.518Z,99.20
2018-07-23T07:45:01.368Z,99.60
2018-07-23T07:47:29.913Z,98.70
2018-07-23T07:49:58.714Z,98.30
2018-07-23T07:52:27.299Z,98.00
2018-07-23T07:54:56.083Z,97.80
2018-07-23T07:57:24.780Z,97.60
2018-07-23T07:59:53.575Z,95.90
2018-07-23T08:02:22.277Z,95.90
2018-07-23T08:04:50.921Z,94.30
2018-07-23T08:07:19.583Z,94.00
2018-07-23T08:09:48.430Z,93.50
2018-07-23T08:12:17.404Z,92.40
2018-07-23T08:14:46.391Z,91.40
2018-07-23T08:17:15.335Z,92.60
2018-07-23T08:19:43.885Z,92.40
2018-07-23T08:22:12.526Z,92.10
2018-07-23T08:29:37.705Z,90.20
2018-07-23T08:32:07.038Z,90.30
2018-07-23T08:34:35.843Z,90.30
2018-07-23T08:37:04.463Z,86.20
2018-07-23T08:39:33.844Z,89.30
2018-07-23T08:42:02.488Z,88.50
2018-07-23T08:44:31.105Z,88.20
2018-07-23T08:46:59.940Z,87.20
2018-07-23T08:49:28.580Z,86.50
2018-07-23T08:51:57.299Z,85.60
2018-07-23T08:54:26.047Z,86.80
2018-07-23T08:56:55.067Z,85.80
2018-07-23T08:59:23.948Z,85.30
2018-07-23T09:01:52.701Z,83.60
2018-07-23T09:04:21.251Z,83.50
2018-07-23T09:06:50.088Z,85.00
2018-07-23T09:09:18.699Z,86.60
2018-07-23T09:11:47.376Z,85.90
2018-07-23T09:14:16.160Z,79.00
2018-07-23T09:16:44.999Z,81.60
2018-07-23T09:19:13.603Z,82.20
2018-07-23T09:21:42.384Z,81.90
2018-07-23T09:24:11.188Z,79.70
2018-07-23T09:26:40.043Z,78.70
2018-07-23T09:29:08.847Z,78.10
2018-07-23T09:31:37.591Z,80.00
2018-07-23T09:34:06.353Z,80.60
2018-07-23T09:39:03.358Z,79.60
2018-07-23T09:41:31.985Z,80.40
2018-07-23T09:44:00.768Z,79.60
2018-07-23T09:48:57.861Z,80.10
2018-07-23T09:51:26.508Z,77.30
2018-07-23T09:53:55.504Z,76.60
2018-07-23T09:56:24.322Z,76.50
2018-07-23T09:58:53.354Z,72.80
2018-07-23T10:01:22.427Z,73.40
2018-07-23T10:03:50.936Z,74.60
2018-07-23T10:06:19.633Z,74.90
2018-07-23T10:08:48.316Z,74.70
2018-07-23T10:11:17.430Z,73.10
2018-07-23T13:04:15.510Z,37.70
2018-07-23T13:06:44.299Z,37.30
2018-07-23T13:09:13.707Z,37.00
2018-07-23T13:11:42.354Z,35.00
2018-07-23T13:14:11.023Z,35.80
2018-07-23T13:16:39.761Z,35.30
2018-07-23T13:19:08.408Z,31.60
2018-07-23T13:21:37.085Z,31.70
2018-07-23T13:24:06.090Z,33.20
2018-07-23T13:26:35.224Z,33.20
2018-07-23T13:29:03.807Z,34.20
2018-07-23T13:31:32.431Z,34.70
2018-07-23T13:34:00.978Z,36.50
2018-07-23T13:36:29.726Z,37.30
2018-07-23T13:38:58.246Z,36.30
2018-07-23T13:41:27.314Z,35.00
2018-07-23T13:43:56.012Z,34.40
2018-07-23T13:46:24.946Z,36.10
2018-07-23T13:48:53.578Z,37.60
2018-07-23T13:51:22.399Z,37.10
2018-07-23T13:53:51.215Z,35.70
2018-07-23T13:56:20.003Z,36.60
2018-07-23T13:58:48.763Z,35.60
2018-07-23T14:01:17.579Z,34.50
2018-07-23T14:03:46.209Z,33.30
2018-07-23T14:06:14.976Z,34.20
2018-07-23T14:08:43.551Z,34.20
2018-07-23T14:11:12.272Z,31.80
2018-07-23T14:13:40.834Z,30.60
2018-07-23T14:16:09.535Z,30.00
2018-07-23T14:18:38.335Z,30.00
2018-07-23T14:21:07.294Z,33.20
2018-07-23T14:23:36.059Z,32.90
2018-07-23T14:26:04.581Z,33.00
2018-07-23T14:28:33.264Z,32.80
2018-07-23T14:31:02.084Z,32.80
2018-07-23T14:33:30.672Z,33.60
2018-07-23T14:35:59.235Z,34.30
2018-07-23T14:38:27.836Z,34.30
2018-07-23T14:40:56.728Z,35.90
2018-07-23T14:43:25.271Z,36.50
2018-07-23T14:45:54.169Z,37.20
2018-07-23T14:48:23.032Z,37.30
2018-07-23T14:50:51.605Z,36.50
2018-07-23T14:53:20.308Z,35.30
2018-07-23T14:55:49.017Z,35.20
2018-07-23T14:58:17.765Z,33.40
2018-07-23T15:00:46.806Z,32.40
2018-07-23T15:03:15.374Z,31.10
2018-07-23T15:05:44.123Z,31.70
2018-07-23T15:08:13.107Z,32.60
2018-07-23T15:10:41.740Z,31.20
2018-07-23T15:13:10.565Z,31.60
2018-07-23T15:15:39.549Z,31.90
2018-07-23T15:18:08.328Z,31.00
2018-07-23T15:20:37.263Z,29.70
2018-07-23T15:23:06.367Z,30.00
2018-07-23T15:25:35.164Z,29.90
2018-07-23T15:28:04.094Z,29.80
2018-07-23T15:30:32.952Z,30.10
2018-07-23T15:33:01.869Z,32.00
2018-07-23T15:35:30.697Z,34.80
2018-07-23T15:37:59.670Z,36.00
2018-07-23T15:40:28.350Z,37.00
2018-07-23T15:42:57.207Z,36.30
2018-07-23T15:45:25.855Z,37.90
2018-07-23T15:47:54.620Z,38.70
2018-07-23T15:50:23.299Z,39.10
2018-07-23T15:52:51.976Z,39.50
2018-07-23T15:55:20.973Z,39.70
2018-07-23T15:57:49.502Z,40.30
2018-07-23T16:00:18.907Z,40.90
2018-07-23T16:02:47.925Z,43.10
2018-07-23T16:05:16.795Z,44.10
2018-07-23T16:07:45.398Z,44.70
2018-07-23T16:10:13.993Z,45.10
2018-07-23T16:12:42.860Z,46.20
2018-07-23T16:15:11.412Z,46.20
2018-07-23T16:17:40.379Z,46.10
2018-07-23T16:20:09.268Z,46.20
2018-07-23T16:22:38.148Z,45.70
2018-07-23T16:25:07.588Z,46.20
2018-07-23T16:27:36.443Z,47.10
2018-07-23T16:30:06.089Z,47.20
2018-07-23T16:32:34.823Z,46.50
2018-07-23T16:35:03.550Z,46.50
2018-07-23T16:37:32.419Z,46.40
2018-07-23T16:40:01.186Z,46.40
2018-07-23T16:42:29.876Z,46.50
2018-07-23T16:44:58.924Z,47.00
2018-07-23T16:47:27.882Z,47.10
2018-07-23T16:49:56.467Z,46.10
2018-07-23T16:52:25.496Z,45.60
2018-07-23T16:54:54.138Z,46.20
2018-07-23T16:57:22.675Z,46.30
2018-07-23T16:59:51.430Z,46.80
2018-07-23T17:02:20.330Z,47.40
2018-07-23T17:04:48.940Z,47.50
2018-07-23T17:07:17.703Z,48.60
2018-07-23T17:09:46.187Z,48.90
2018-07-23T17:12:14.961Z,48.90
2018-07-23T17:14:43.923Z,48.90
2018-07-23T17:17:12.565Z,49.30
2018-07-23T17:19:41.558Z,48.70
2018-07-23T17:22:10.434Z,48.50
2018-07-23T17:24:38.951Z,48.90
2018-07-23T17:27:07.655Z,48.80
2018-07-23T17:29:37.049Z,49.40
2018-07-23T17:32:05.700Z,49.70
2018-07-23T17:34:34.697Z,50.30
2018-07-23T17:37:03.482Z,50.40
2018-07-23T17:39:32.224Z,49.60
2018-07-23T17:42:00.942Z,49.70
2018-07-23T17:44:29.702Z,50.10
2018-07-23T17:46:58.343Z,49.90
2018-07-23T17:49:27.400Z,50.20
2018-07-23T17:51:56.015Z,51.30
2018-07-23T17:54:24.949Z,51.10
2018-07-23T17:56:53.933Z,51.20
2018-07-23T17:59:22.671Z,51.40
2018-07-23T18:01:51.269Z,51.80
2018-07-23T18:04:19.953Z,51.80
2018-07-23T18:06:48.687Z,52.70
2018-07-23T18:09:17.365Z,53.10
2018-07-23T18:11:45.967Z,54.00
2018-07-23T18:14:14.639Z,53.10
2018-07-23T18:16:43.186Z,53.50
2018-07-23T18:19:11.918Z,54.30
2018-07-23T18:24:09.004Z,56.30
2018-07-23T18:26:37.889Z,55.70
2018-07-23T18:29:06.613Z,57.70
2018-07-23T18:31:35.233Z,57.40
2018-07-23T18:34:03.845Z,58.30
2018-07-23T18:36:32.712Z,58.60
2018-07-23T18:39:01.651Z,59.20
2018-07-23T18:41:30.483Z,60.40
2018-07-23T18:43:59.067Z,62.00
2018-07-23T18:46:27.985Z,62.60
2018-07-23T18:49:34.252Z,65.20
2018-07-23T18:52:03.355Z,68.50
2018-07-23T18:54:32.967Z,70.60
2018-07-23T18:57:02.759Z,72.90
2018-07-23T18:59:31.657Z,75.90
2018-07-23T19:02:01.574Z,79.50
2018-07-23T19:04:30.157Z,82.40
2018-07-23T19:06:59.376Z,83.90
2018-07-23T19:09:28.637Z,87.50
2018-07-23T19:11:58.269Z,89.10
2018-07-23T19:14:27.248Z,90.40
2018-07-23T19:16:56.977Z,90.90
2018-07-23T19:19:25.626Z,91.20
2018-07-23T19:21:54.556Z,91.50
2018-07-23T19:24:23.234Z,91.90
2018-07-23T19:26:51.925Z,92.00
2018-07-23T19:29:20.603Z,92.20
2018-07-23T19:31:49.386Z,92.40
2018-07-23T19:34:18.180Z,92.90
2018-07-23T19:36:46.842Z,93.00
2018-07-23T19:39:16.777Z,93.40
2018-07-23T19:41:45.477Z,94.10
2018-07-23T19:44:14.216Z,94.40
2018-07-23T19:46:43.296Z,94.50
2018-07-23T19:49:12.130Z,94.80
2018-07-23T19:51:40.803Z,95.20
2018-07-23T19:56:38.626Z,95.90
2018-07-23T19:59:07.423Z,95.90
2018-07-23T20:01:36.192Z,95.90
2018-07-23T20:04:05.229Z,96.00
2018-07-23T20:06:33.855Z,96.80
2018-07-23T20:09:03.148Z,96.90
2018-07-23T20:11:31.831Z,97.00
2018-07-23T20:14:00.508Z,97.40
2018-07-23T20:16:29.432Z,97.70
2018-07-23T20:21:26.957Z,98.10
2018-07-23T20:23:55.701Z,98.20
2018-07-23T20:26:24.400Z,98.40
2018-07-23T20:28:53.211Z,98.60
2018-07-23T20:31:21.814Z,98.70
2018-07-23T20:33:50.756Z,98.50
2018-07-23T20:36:19.410Z,98.50
2018-07-23T20:38:48.409Z,98.70
2018-07-23T20:41:17.267Z,98.90
2018-07-23T20:43:45.910Z,99.10
2018-07-23T20:46:14.548Z,99.20
2018-07-23T20:51:11.894Z,99.90
2018-07-23T20:53:41.001Z,99.90
2018-07-23T20:56:10.036Z,99.90
2018-07-23T20:58:39.106Z,99.90
2018-07-23T21:01:07.849Z,99.90
2018-07-23T21:03:36.840Z,99.90
2018-07-23T21:06:05.643Z,99.90
2018-07-23T21:08:34.495Z,99.90
2018-07-23T21:11:03.193Z,99.90
2018-07-23T21:13:31.834Z,99.90
2018-07-23T21:16:00.419Z,99.90
2018-07-23T21:18:29.110Z,99.90
2018-07-23T21:20:57.821Z,99.90
2018-07-23T21:23:26.716Z,99.90
2018-07-23T21:25:55.427Z,99.90
2018-07-23T21:28:24.081Z,99.90
2018-07-23T21:30:52.782Z,99.90
2018-07-23T21:33:21.853Z,99.90
2018-07-23T21:35:51.062Z,99.90
2018-07-23T21:38:20.228Z,99.90
2018-07-23T21:40:48.990Z,99.90
2018-07-23T21:43:17.930Z,99.90
2018-07-23T21:45:46.440Z,99.90
2018-07-23T21:48:14.954Z,99.90
2018-07-23T21:50:43.658Z,99.90
2018-07-23T21:53:12.509Z,99.90
2018-07-23T21:55:41.011Z,99.90
2018-07-23T21:58:09.683Z,99.90
2018-07-23T22:00:38.652Z,99.90
2018-07-23T22:03:07.341Z,99.90
2018-07-23T22:05:36.048Z,99.90
2018-07-23T22:08:04.940Z,99.90
2018-07-23T22:10:33.723Z,99.90
2018-07-23T22:13:02.446Z,99.90
2018-07-23T22:15:30.980Z,99.90
2018-07-23T22:18:00.056Z,99.90
2018-07-23T22:20:28.717Z,99.90
2018-07-23T22:22:57.534Z,99.90
2018-07-23T22:25:26.580Z,99.90
2018-07-23T22:27:55.237Z,99.90
2018-07-23T22:30:23.945Z,99.90
2018-07-23T22:32:52.647Z,99.90
2018-07-23T22:35:21.307Z,99.90
2018-07-23T22:37:50.107Z,99.90
2018-07-23T22:40:18.906Z,99.90
2018-07-23T22:42:47.777Z,99.90
2018-07-23T22:45:16.495Z,99.90
2018-07-23T22:47:45.280Z,99.90
2018-07-23T22:50:13.837Z,99.90
2018-07-23T22:52:42.692Z,99.90
2018-07-23T22:55:11.236Z,99.90
2018-07-23T22:57:39.982Z,99.90
2018-07-23T23:00:08.552Z,99.90
2018-07-23T23:02:37.274Z,99.90
2018-07-23T23:05:06.265Z,99.90
2018-07-23T23:07:36.957Z,99.90
2018-07-23T23:10:05.800Z,99.90
2018-07-23T23:12:34.531Z,99.90
2018-07-23T23:15:03.164Z,99.90
2018-07-23T23:17:31.690Z,99.90
2018-07-23T23:20:00.603Z,99.90
2018-07-23T23:22:29.132Z,99.90
2018-07-23T23:24:58.010Z,99.90
2018-07-23T23:27:26.584Z,99.90
2018-07-23T23:29:55.408Z,99.90
2018-07-23T23:32:24.150Z,99.90
2018-07-23T23:34:52.674Z,99.90
2018-07-23T23:37:21.182Z,99.90
2018-07-23T23:39:50.121Z,99.90
2018-07-23T23:42:18.846Z,99.90
2018-07-23T23:44:47.466Z,99.90
2018-07-23T23:47:16.184Z,99.90
2018-07-23T23:49:45.060Z,99.90
2018-07-23T23:52:13.592Z,99.90
2018-07-23T23:54:42.839Z,99.90
2018-07-23T23:57:11.358Z,99.90
2018-07-23T23:59:39.888Z,99.90
